Strona główna
METAR-TAF:

METAR-TAF

Lotnisko :

Port lotniczy Mauritius

Mauritius, Mauritius

Szerokość geograficzna: 20-26S, Długość geograficzna: 057-40E, wysokość: 55 m

Aktualna obserwacja pogody

Raport powstał 35 minut temu, godzina 04:00 UTC
Wiatr 14 kt od południowy wschód
Temperatura 23°C
Wilgotność 65%
Ciśnienie 1022 hPa
Widzialność 10 km lub więcej
Mało chmury na wysokości 1800 ft

METAR: FIMP 050400Z 13014KT 9999 FEW018 23/16 Q1022

czas: 08:35 (04:35 UTC)

Prognoza

Raport powstał 5 godziny i 5 minut temu, godzina 23:30 UTC
Prognoza ważna od 05 godzina 00 UTC do 06 godzina 06 UTC
Wiatr 10 kt od wschodnio-południowy wschód
Widzialność 10 km lub więcej
Rozproszone chmury na wysokości 1800 ft
Stopniowe zmiany
od 05 godzina 16 UTC do 05 godzina 18 UTC
Wiatr 3 kt od północno-północny zachód
Stopniowe zmiany
od 06 godzina 04 UTC do 06 godzina 06 UTC
Wiatr 8 kt od południowy wschód

TAF: FIMP 042330Z 0500/0606 12010KT 9999 SCT018 BECMG 0516/0518 33003KT BECMG 0604/0606 14008KT

Obserwacja i prognoza pogody dla ponad 4000 lotnisk (raport METAR i TAF).

Dostępne stacje oznaczono żółtymi i czerwonymi punktami na mapie.

Najedź kursorem aby zobaczyć nazwę stacji.

Kliknij aby zobaczyć obserwacje i prognozy pogody.

Aby zmienić mapę: kliknij na zielony przycisk z czarnym krzyżykiem, aby powiększyć; na zielony przycisk z myślnikiem, aby pomniejszyć; na zielone strzałki, aby przejść do map sąsiednich.


METAR-TAF: